sensor_id;sensor_type;location;lat;lon;timestamp;pressure;altitude;pressure_sealevel;temperature;humidity
21504;BME280;10913;51.992;9.228;2023-04-30T00:00:39;100976.84;;;8.04;95.02
21504;BME280;10913;51.992;9.228;2023-04-30T00:03:04;100975.03;;;8.00;95.09
21504;BME280;10913;51.992;9.228;2023-04-30T00:05:29;100982.84;;;7.93;95.33
21504;BME280;10913;51.992;9.228;2023-04-30T00:07:55;100987.09;;;7.85;95.71
21504;BME280;10913;51.992;9.228;2023-04-30T00:10:20;100986.97;;;7.76;96.19
21504;BME280;10913;51.992;9.228;2023-04-30T00:12:46;100989.50;;;7.70;96.86
21504;BME280;10913;51.992;9.228;2023-04-30T00:15:11;100993.84;;;7.68;97.36
21504;BME280;10913;51.992;9.228;2023-04-30T00:17:36;100998.22;;;7.68;97.21
21504;BME280;10913;51.992;9.228;2023-04-30T00:20:02;100996.41;;;7.65;97.17
21504;BME280;10913;51.992;9.228;2023-04-30T00:22:28;100999.91;;;7.64;97.45
21504;BME280;10913;51.992;9.228;2023-04-30T00:24:53;101001.69;;;7.67;96.75
21504;BME280;10913;51.992;9.228;2023-04-30T00:27:18;101007.00;;;7.70;96.62
21504;BME280;10913;51.992;9.228;2023-04-30T00:29:44;101004.38;;;7.70;96.41
21504;BME280;10913;51.992;9.228;2023-04-30T00:32:09;101010.53;;;7.70;96.18
21504;BME280;10913;51.992;9.228;2023-04-30T00:34:35;101015.75;;;7.67;96.35
21504;BME280;10913;51.992;9.228;2023-04-30T00:37:00;101014.69;;;7.56;96.80
21504;BME280;10913;51.992;9.228;2023-04-30T00:39:25;101018.13;;;7.52;98.02
21504;BME280;10913;51.992;9.228;2023-04-30T00:41:50;101010.16;;;7.49;98.27
21504;BME280;10913;51.992;9.228;2023-04-30T00:44:16;101008.38;;;7.46;98.34
21504;BME280;10913;51.992;9.228;2023-04-30T00:46:41;101012.66;;;7.41;98.64
21504;BME280;10913;51.992;9.228;2023-04-30T00:49:07;101014.38;;;7.38;99.79
21504;BME280;10913;51.992;9.228;2023-04-30T00:51:34;101014.41;;;7.41;100.00
21504;BME280;10913;51.992;9.228;2023-04-30T00:54:00;101017.94;;;7.43;100.00
21504;BME280;10913;51.992;9.228;2023-04-30T00:56:28;101016.28;;;7.48;100.00
21504;BME280;10913;51.992;9.228;2023-04-30T00:58:55;101014.63;;;7.53;100.00
21504;BME280;10913;51.992;9.228;2023-04-30T01:01:25;101018.13;;;7.52;100.00
21504;BME280;10913;51.992;9.228;2023-04-30T01:03:53;101022.34;;;7.44;100.00
21504;BME280;10913;51.992;9.228;2023-04-30T01:06:18;101031.94;;;7.42;100.00
21504;BME280;10913;51.992;9.228;2023-04-30T01:08:43;101022.31;;;7.42;100.00
21504;BME280;10913;51.992;9.228;2023-04-30T01:14:12;101017.06;;;7.42;100.00
21504;BME280;10913;51.992;9.228;2023-04-30T01:16:56;101019.72;;;7.44;100.00
21504;BME280;10913;51.992;9.228;2023-04-30T01:19:44;101024.13;;;7.45;100.00
21504;BME280;10913;51.992;9.228;2023-04-30T01:30:20;101035.22;;;7.29;100.00
21504;BME280;10913;51.992;9.228;2023-04-30T01:32:46;101039.56;;;7.26;100.00
21504;BME280;10913;51.992;9.228;2023-04-30T01:35:12;101034.34;;;7.28;100.00
21504;BME280;10913;51.992;9.228;2023-04-30T01:40:26;101041.31;;;7.28;99.75
21504;BME280;10913;51.992;9.228;2023-04-30T01:48:18;101042.25;;;7.30;99.07
21504;BME280;10913;51.992;9.228;2023-04-30T01:50:52;101037.84;;;7.29;99.24
21504;BME280;10913;51.992;9.228;2023-04-30T01:53:23;101038.69;;;7.28;99.04
21504;BME280;10913;51.992;9.228;2023-04-30T01:55:59;101047.44;;;7.26;99.18
21504;BME280;10913;51.992;9.228;2023-04-30T01:58:26;101037.69;;;7.21;98.79
21504;BME280;10913;51.992;9.228;2023-04-30T02:00:51;101040.28;;;7.18;99.21
21504;BME280;10913;51.992;9.228;2023-04-30T02:03:17;101043.75;;;7.15;98.81
21504;BME280;10913;51.992;9.228;2023-04-30T02:05:43;101049.03;;;7.17;98.75
21504;BME280;10913;51.992;9.228;2023-04-30T02:08:08;101041.97;;;7.14;98.86
21504;BME280;10913;51.992;9.228;2023-04-30T02:10:34;101043.69;;;7.12;98.48
21504;BME280;10913;51.992;9.228;2023-04-30T02:12:59;101048.91;;;7.11;98.13
21504;BME280;10913;51.992;9.228;2023-04-30T02:15:25;101055.84;;;7.07;98.03
21504;BME280;10913;51.992;9.228;2023-04-30T02:17:51;101048.69;;;7.00;98.33
21504;BME280;10913;51.992;9.228;2023-04-30T02:20:17;101061.75;;;6.96;98.29
21504;BME280;10913;51.992;9.228;2023-04-30T02:22:42;101051.88;;;6.85;98.41
21504;BME280;10913;51.992;9.228;2023-04-30T02:25:08;101058.72;;;6.76;99.21
21504;BME280;10913;51.992;9.228;2023-04-30T02:27:33;101057.78;;;6.74;99.56
21504;BME280;10913;51.992;9.228;2023-04-30T02:29:59;101063.91;;;6.73;100.00
21504;BME280;10913;51.992;9.228;2023-04-30T02:32:25;101063.03;;;6.74;99.73
21504;BME280;10913;51.992;9.228;2023-04-30T02:34:50;101060.41;;;6.74;99.39
21504;BME280;10913;51.992;9.228;2023-04-30T02:37:16;101058.63;;;6.73;98.87
21504;BME280;10913;51.992;9.228;2023-04-30T02:39:41;101066.47;;;6.71;98.20
21504;BME280;10913;51.992;9.228;2023-04-30T02:42:06;101069.00;;;6.67;97.55
21504;BME280;10913;51.992;9.228;2023-04-30T02:44:32;101070.59;;;6.59;97.63
21504;BME280;10913;51.992;9.228;2023-04-30T02:46:59;101073.06;;;6.52;97.99
21504;BME280;10913;51.992;9.228;2023-04-30T02:49:24;101068.56;;;6.47;98.44
21504;BME280;10913;51.992;9.228;2023-04-30T02:51:50;101075.47;;;6.43;98.68
21504;BME280;10913;51.992;9.228;2023-04-30T02:54:16;101072.78;;;6.40;99.14
21504;BME280;10913;51.992;9.228;2023-04-30T02:56:41;101072.81;;;6.42;99.62
21504;BME280;10913;51.992;9.228;2023-04-30T02:59:07;101072.78;;;6.40;98.89
21504;BME280;10913;51.992;9.228;2023-04-30T03:01:33;101076.25;;;6.38;98.62
21504;BME280;10913;51.992;9.228;2023-04-30T03:03:58;101077.03;;;6.34;98.79
21504;BME280;10913;51.992;9.228;2023-04-30T03:06:24;101067.38;;;6.33;98.93
21504;BME280;10913;51.992;9.228;2023-04-30T03:08:49;101071.66;;;6.29;98.81
21504;BME280;10913;51.992;9.228;2023-04-30T03:11:14;101080.38;;;6.28;98.55
21504;BME280;10913;51.992;9.228;2023-04-30T03:13:40;101078.50;;;6.22;98.59
21504;BME280;10913;51.992;9.228;2023-04-30T03:16:05;101071.44;;;6.20;98.46
21504;BME280;10913;51.992;9.228;2023-04-30T03:18:31;101082.78;;;6.17;97.81
21504;BME280;10913;51.992;9.228;2023-04-30T03:20:57;101084.47;;;6.15;97.71
21504;BME280;10913;51.992;9.228;2023-04-30T03:23:23;101088.75;;;6.12;97.20
21504;BME280;10913;51.992;9.228;2023-04-30T03:25:49;101096.50;;;6.07;97.75
21504;BME280;10913;51.992;9.228;2023-04-30T03:28:14;101097.25;;;6.02;97.48
21504;BME280;10913;51.992;9.228;2023-04-30T03:30:40;101094.53;;;5.97;97.21
21504;BME280;10913;51.992;9.228;2023-04-30T03:33:05;101097.13;;;5.96;98.13
21504;BME280;10913;51.992;9.228;2023-04-30T03:35:31;101105.03;;;5.97;98.11
21504;BME280;10913;51.992;9.228;2023-04-30T03:37:58;101098.00;;;5.96;98.11
21504;BME280;10913;51.992;9.228;2023-04-30T03:40:23;101102.28;;;5.93;98.11
21504;BME280;10913;51.992;9.228;2023-04-30T03:42:49;101101.31;;;5.89;97.96
21504;BME280;10913;51.992;9.228;2023-04-30T03:45:14;101096.84;;;5.86;97.93
21504;BME280;10913;51.992;9.228;2023-04-30T03:47:41;101108.09;;;5.82;98.23
21504;BME280;10913;51.992;9.228;2023-04-30T03:50:07;101105.41;;;5.79;98.45
21504;BME280;10913;51.992;9.228;2023-04-30T03:52:32;101109.72;;;5.77;98.50
21504;BME280;10913;51.992;9.228;2023-04-30T03:54:58;101110.53;;;5.75;98.52
21504;BME280;10913;51.992;9.228;2023-04-30T03:57:23;101107.81;;;5.72;98.20
21504;BME280;10913;51.992;9.228;2023-04-30T03:59:49;101102.53;;;5.70;98.37
21504;BME280;10913;51.992;9.228;2023-04-30T04:02:15;101117.34;;;5.68;98.12
21504;BME280;10913;51.992;9.228;2023-04-30T04:04:41;101108.53;;;5.66;98.04
21504;BME280;10913;51.992;9.228;2023-04-30T04:07:06;101117.25;;;5.65;97.96
21504;BME280;10913;51.992;9.228;2023-04-30T04:09:33;101118.94;;;5.63;97.82
21504;BME280;10913;51.992;9.228;2023-04-30T04:11:59;101113.69;;;5.63;97.97
21504;BME280;10913;51.992;9.228;2023-04-30T04:14:25;101108.38;;;5.60;97.66
21504;BME280;10913;51.992;9.228;2023-04-30T04:16:53;101104.78;;;5.55;97.68
21504;BME280;10913;51.992;9.228;2023-04-30T04:19:19;101107.34;;;5.53;98.33
21504;BME280;10913;51.992;9.228;2023-04-30T04:21:44;101101.22;;;5.53;97.94
21504;BME280;10913;51.992;9.228;2023-04-30T04:24:10;101109.09;;;5.53;97.81
21504;BME280;10913;51.992;9.228;2023-04-30T04:26:36;101112.53;;;5.52;97.65
21504;BME280;10913;51.992;9.228;2023-04-30T04:29:05;101115.16;;;5.52;97.85
21504;BME280;10913;51.992;9.228;2023-04-30T04:31:30;101116.91;;;5.51;98.01
21504;BME280;10913;51.992;9.228;2023-04-30T04:33:58;101120.41;;;5.52;98.01
21504;BME280;10913;51.992;9.228;2023-04-30T04:36:25;101113.47;;;5.54;98.20
21504;BME280;10913;51.992;9.228;2023-04-30T04:38:53;101119.59;;;5.54;97.84
21504;BME280;10913;51.992;9.228;2023-04-30T04:41:19;101119.59;;;5.54;98.02
21504;BME280;10913;51.992;9.228;2023-04-30T04:43:45;101117.88;;;5.55;98.08
21504;BME280;10913;51.992;9.228;2023-04-30T04:46:10;101119.66;;;5.56;98.32
21504;BME280;10913;51.992;9.228;2023-04-30T04:48:35;101125.81;;;5.58;98.16
21504;BME280;10913;51.992;9.228;2023-04-30T04:51:01;101126.75;;;5.62;98.19
21504;BME280;10913;51.992;9.228;2023-04-30T04:53:26;101125.06;;;5.64;98.18
21504;BME280;10913;51.992;9.228;2023-04-30T04:55:52;101131.13;;;5.61;98.37
21504;BME280;10913;51.992;9.228;2023-04-30T04:58:17;101128.34;;;5.55;99.08
21504;BME280;10913;51.992;9.228;2023-04-30T05:00:43;101138.63;;;5.47;100.00
21504;BME280;10913;51.992;9.228;2023-04-30T05:03:09;101137.81;;;5.50;100.00
21504;BME280;10913;51.992;9.228;2023-04-30T05:05:35;101132.72;;;5.54;100.00
21504;BME280;10913;51.992;9.228;2023-04-30T05:08:00;101131.97;;;5.60;100.00
21504;BME280;10913;51.992;9.228;2023-04-30T05:10:26;101140.00;;;5.66;100.00
21504;BME280;10913;51.992;9.228;2023-04-30T05:12:51;101138.44;;;5.73;100.00
21504;BME280;10913;51.992;9.228;2023-04-30T05:15:17;101143.84;;;5.79;100.00
21504;BME280;10913;51.992;9.228;2023-04-30T05:17:42;101143.16;;;5.86;99.86
21504;BME280;10913;51.992;9.228;2023-04-30T05:20:08;101139.00;;;5.93;99.87
21504;BME280;10913;51.992;9.228;2023-04-30T05:22:33;101146.13;;;6.00;99.76
21504;BME280;10913;51.992;9.228;2023-04-30T05:24:59;101133.16;;;6.04;99.63
21504;BME280;10913;51.992;9.228;2023-04-30T05:27:24;101142.06;;;6.11;99.54
21504;BME280;10913;51.992;9.228;2023-04-30T05:29:51;101144.84;;;6.17;99.49
21504;BME280;10913;51.992;9.228;2023-04-30T05:32:16;101139.72;;;6.23;99.38
21504;BME280;10913;51.992;9.228;2023-04-30T05:34:41;101146.03;;;6.30;99.44
21504;BME280;10913;51.992;9.228;2023-04-30T05:37:07;101150.53;;;6.35;99.62
21504;BME280;10913;51.992;9.228;2023-04-30T05:39:32;101144.56;;;6.42;99.20
21504;BME280;10913;51.992;9.228;2023-04-30T05:41:57;101145.56;;;6.47;99.43
21504;BME280;10913;51.992;9.228;2023-04-30T05:44:23;101143.06;;;6.52;99.65
21504;BME280;10913;51.992;9.228;2023-04-30T05:46:48;101145.81;;;6.56;99.96
21504;BME280;10913;51.992;9.228;2023-04-30T05:49:13;101147.59;;;6.57;100.00
21504;BME280;10913;51.992;9.228;2023-04-30T05:51:39;101148.44;;;6.56;100.00
21504;BME280;10913;51.992;9.228;2023-04-30T05:54:04;101150.22;;;6.57;100.00
21504;BME280;10913;51.992;9.228;2023-04-30T05:56:30;101151.09;;;6.60;100.00
21504;BME280;10913;51.992;9.228;2023-04-30T05:58:55;101137.22;;;6.65;100.00
21504;BME280;10913;51.992;9.228;2023-04-30T06:01:20;101136.38;;;6.66;100.00
21504;BME280;10913;51.992;9.228;2023-04-30T06:03:47;101140.00;;;6.71;100.00
21504;BME280;10913;51.992;9.228;2023-04-30T06:06:12;101139.25;;;6.77;100.00
21504;BME280;10913;51.992;9.228;2023-04-30T06:08:38;101144.63;;;6.83;100.00
21504;BME280;10913;51.992;9.228;2023-04-30T06:11:06;101138.59;;;6.87;100.00
21504;BME280;10913;51.992;9.228;2023-04-30T06:13:31;101143.06;;;6.91;100.00
21504;BME280;10913;51.992;9.228;2023-04-30T06:15:57;101150.06;;;6.90;100.00
21504;BME280;10913;51.992;9.228;2023-04-30T06:18:22;101145.72;;;6.93;100.00
21504;BME280;10913;51.992;9.228;2023-04-30T06:20:48;101151.94;;;6.96;100.00
21504;BME280;10913;51.992;9.228;2023-04-30T06:23:13;101148.53;;;7.02;100.00
21504;BME280;10913;51.992;9.228;2023-04-30T06:25:38;101146.88;;;7.05;100.00
21504;BME280;10913;51.992;9.228;2023-04-30T06:28:04;101146.09;;;7.09;100.00
21504;BME280;10913;51.992;9.228;2023-04-30T06:30:30;101155.06;;;7.20;100.00
21504;BME280;10913;51.992;9.228;2023-04-30T06:32:56;101146.50;;;7.29;100.00
21504;BME280;10913;51.992;9.228;2023-04-30T06:35:21;101150.16;;;7.37;100.00
21504;BME280;10913;51.992;9.228;2023-04-30T06:37:47;101151.22;;;7.47;99.32
21504;BME280;10913;51.992;9.228;2023-04-30T06:40:12;101142.66;;;7.57;99.05
21504;BME280;10913;51.992;9.228;2023-04-30T06:42:37;101153.34;;;7.66;97.84
21504;BME280;10913;51.992;9.228;2023-04-30T06:45:03;101151.63;;;7.68;97.57
21504;BME280;10913;51.992;9.228;2023-04-30T06:47:30;101152.69;;;7.78;96.59
21504;BME280;10913;51.992;9.228;2023-04-30T06:50:01;101156.41;;;7.89;94.66
21504;BME280;10913;51.992;9.228;2023-04-30T06:52:26;101154.84;;;7.99;92.71
21504;BME280;10913;51.992;9.228;2023-04-30T06:54:52;101161.94;;;8.04;90.24
21504;BME280;10913;51.992;9.228;2023-04-30T06:57:17;101151.56;;;8.13;93.08
21504;BME280;10913;51.992;9.228;2023-04-30T06:59:43;101147.38;;;8.26;91.90
21504;BME280;10913;51.992;9.228;2023-04-30T07:02:08;101150.25;;;8.37;91.34
21504;BME280;10913;51.992;9.228;2023-04-30T07:04:34;101149.53;;;8.48;92.05
21504;BME280;10913;51.992;9.228;2023-04-30T07:06:59;101149.72;;;8.62;88.19
21504;BME280;10913;51.992;9.228;2023-04-30T07:09:27;101148.19;;;8.75;87.47
21504;BME280;10913;51.992;9.228;2023-04-30T07:11:53;101147.44;;;8.86;87.57
21504;BME280;10913;51.992;9.228;2023-04-30T07:14:18;101148.47;;;8.94;86.08
21504;BME280;10913;51.992;9.228;2023-04-30T07:16:43;101153.84;;;9.05;85.37
21504;BME280;10913;51.992;9.228;2023-04-30T07:19:09;101147.97;;;9.26;87.49
21504;BME280;10913;51.992;9.228;2023-04-30T07:21:34;101157.94;;;9.50;85.26
21504;BME280;10913;51.992;9.228;2023-04-30T07:24:00;101161.63;;;9.67;84.15
21504;BME280;10913;51.992;9.228;2023-04-30T07:26:25;101162.78;;;9.93;85.07
21504;BME280;10913;51.992;9.228;2023-04-30T07:28:50;101156.03;;;10.23;80.74
21504;BME280;10913;51.992;9.228;2023-04-30T07:31:16;101144.06;;;10.69;81.53
21504;BME280;10913;51.992;9.228;2023-04-30T07:33:41;101150.66;;;11.64;76.61
21504;BME280;10913;51.992;9.228;2023-04-30T07:36:07;101141.63;;;13.57;71.16
21504;BME280;10913;51.992;9.228;2023-04-30T07:38:33;101128.56;;;15.94;65.91
21504;BME280;10913;51.992;9.228;2023-04-30T07:40:58;101122.19;;;18.23;60.17
21504;BME280;10913;51.992;9.228;2023-04-30T07:43:23;101112.47;;;20.06;56.32
21504;BME280;10913;51.992;9.228;2023-04-30T07:45:49;101113.91;;;21.65;53.01
21504;BME280;10913;51.992;9.228;2023-04-30T07:48:15;101114.16;;;22.26;49.66
21504;BME280;10913;51.992;9.228;2023-04-30T07:50:42;101114.91;;;22.92;49.43
21504;BME280;10913;51.992;9.228;2023-04-30T07:53:07;101115.88;;;23.68;47.66
21504;BME280;10913;51.992;9.228;2023-04-30T07:55:34;101112.78;;;24.13;47.96
21504;BME280;10913;51.992;9.228;2023-04-30T07:57:59;101120.63;;;24.71;47.16
21504;BME280;10913;51.992;9.228;2023-04-30T08:00:26;101113.72;;;24.48;46.86
21504;BME280;10913;51.992;9.228;2023-04-30T08:02:53;101107.09;;;24.00;47.43
21504;BME280;10913;51.992;9.228;2023-04-30T08:05:19;101111.91;;;22.78;47.62
21504;BME280;10913;51.992;9.228;2023-04-30T08:07:44;101125.97;;;21.32;49.45
21504;BME280;10913;51.992;9.228;2023-04-30T08:10:10;101131.72;;;20.47;52.34
21504;BME280;10913;51.992;9.228;2023-04-30T08:12:35;101125.31;;;19.69;53.04
21504;BME280;10913;51.992;9.228;2023-04-30T08:15:02;101127.19;;;19.05;54.15
21504;BME280;10913;51.992;9.228;2023-04-30T08:17:29;101127.50;;;18.58;55.50
21504;BME280;10913;51.992;9.228;2023-04-30T08:19:54;101125.34;;;18.39;56.14
21504;BME280;10913;51.992;9.228;2023-04-30T08:22:19;101131.41;;;18.11;56.75
21504;BME280;10913;51.992;9.228;2023-04-30T08:24:45;101125.06;;;18.15;57.06
21504;BME280;10913;51.992;9.228;2023-04-30T08:27:10;101130.81;;;18.36;56.81
21504;BME280;10913;51.992;9.228;2023-04-30T08:29:36;101125.97;;;18.50;56.90
21504;BME280;10913;51.992;9.228;2023-04-30T08:32:02;101126.06;;;18.11;55.74
21504;BME280;10913;51.992;9.228;2023-04-30T08:34:28;101119.53;;;18.23;56.91
21504;BME280;10913;51.992;9.228;2023-04-30T08:36:53;101125.13;;;18.14;56.35
21504;BME280;10913;51.992;9.228;2023-04-30T08:39:19;101126.00;;;18.14;57.02
21504;BME280;10913;51.992;9.228;2023-04-30T08:41:45;101130.97;;;17.52;56.50
21504;BME280;10913;51.992;9.228;2023-04-30T08:44:16;101120.19;;;17.15;58.43
21504;BME280;10913;51.992;9.228;2023-04-30T08:46:42;101123.13;;;17.02;59.96
21504;BME280;10913;51.992;9.228;2023-04-30T08:49:09;101124.75;;;17.09;59.77
21504;BME280;10913;51.992;9.228;2023-04-30T08:51:35;101133.78;;;17.02;59.80
21504;BME280;10913;51.992;9.228;2023-04-30T08:54:00;101124.88;;;17.03;60.72
21504;BME280;10913;51.992;9.228;2023-04-30T08:56:26;101121.75;;;17.26;60.84
21504;BME280;10913;51.992;9.228;2023-04-30T08:58:53;101121.50;;;17.38;59.39
21504;BME280;10913;51.992;9.228;2023-04-30T09:18:10;101115.63;;;17.19;60.01
21504;BME280;10913;51.992;9.228;2023-04-30T09:20:36;101108.81;;;17.06;60.43
21504;BME280;10913;51.992;9.228;2023-04-30T09:23:09;101104.16;;;17.15;61.52
21504;BME280;10913;51.992;9.228;2023-04-30T09:25:42;101100.91;;;17.41;61.46
21504;BME280;10913;51.992;9.228;2023-04-30T09:28:08;101101.31;;;17.65;61.04
21504;BME280;10913;51.992;9.228;2023-04-30T09:30:34;101096.38;;;17.85;58.86
21504;BME280;10913;51.992;9.228;2023-04-30T09:33:01;101097.50;;;17.76;58.50
21504;BME280;10913;51.992;9.228;2023-04-30T09:35:30;101099.50;;;17.67;59.78
21504;BME280;10913;51.992;9.228;2023-04-30T09:37:58;101096.69;;;17.73;61.34
21504;BME280;10913;51.992;9.228;2023-04-30T09:40:38;101093.31;;;17.65;61.39
21504;BME280;10913;51.992;9.228;2023-04-30T09:43:04;101092.84;;;17.84;60.96
21504;BME280;10913;51.992;9.228;2023-04-30T09:45:44;101089.16;;;17.90;59.48
21504;BME280;10913;51.992;9.228;2023-04-30T09:48:15;101094.59;;;18.21;60.08
21504;BME280;10913;51.992;9.228;2023-04-30T09:50:41;101091.59;;;18.35;57.87
21504;BME280;10913;51.992;9.228;2023-04-30T09:53:08;101091.22;;;18.14;57.73
21504;BME280;10913;51.992;9.228;2023-04-30T09:55:35;101101.34;;;17.62;57.88
21504;BME280;10913;51.992;9.228;2023-04-30T09:58:04;101094.16;;;17.25;58.39
21504;BME280;10913;51.992;9.228;2023-04-30T10:00:30;101096.47;;;16.99;59.97
21504;BME280;10913;51.992;9.228;2023-04-30T10:02:57;101099.91;;;17.05;59.82
21504;BME280;10913;51.992;9.228;2023-04-30T10:05:24;101099.75;;;17.13;60.78
21504;BME280;10913;51.992;9.228;2023-04-30T10:07:52;101096.78;;;17.27;59.48
21504;BME280;10913;51.992;9.228;2023-04-30T10:10:18;101098.00;;;17.53;59.39
21504;BME280;10913;51.992;9.228;2023-04-30T10:12:50;101081.25;;;17.84;60.16
21504;BME280;10913;51.992;9.228;2023-04-30T10:15:27;101080.75;;;18.05;59.40
21504;BME280;10913;51.992;9.228;2023-04-30T10:18:01;101070.50;;;18.22;59.61
21504;BME280;10913;51.992;9.228;2023-04-30T10:20:30;101066.63;;;17.99;57.63
21504;BME280;10913;51.992;9.228;2023-04-30T10:22:59;101060.06;;;18.12;58.30
21504;BME280;10913;51.992;9.228;2023-04-30T10:25:26;101064.91;;;18.32;59.48
21504;BME280;10913;51.992;9.228;2023-04-30T10:27:52;101049.19;;;18.52;59.19
21504;BME280;10913;51.992;9.228;2023-04-30T10:30:17;101055.00;;;18.69;59.77
21504;BME280;10913;51.992;9.228;2023-04-30T10:33:06;101057.31;;;18.81;59.81
21504;BME280;10913;51.992;9.228;2023-04-30T10:35:59;101054.47;;;18.87;58.91
21504;BME280;10913;51.992;9.228;2023-04-30T10:38:29;101052.47;;;18.96;57.79
21504;BME280;10913;51.992;9.228;2023-04-30T10:40:55;101044.00;;;19.09;57.88
21504;BME280;10913;51.992;9.228;2023-04-30T10:43:26;101050.66;;;18.96;56.97
21504;BME280;10913;51.992;9.228;2023-04-30T10:45:52;101046.34;;;18.90;59.31
21504;BME280;10913;51.992;9.228;2023-04-30T10:48:21;101042.00;;;18.86;55.42
21504;BME280;10913;51.992;9.228;2023-04-30T10:50:52;101031.38;;;18.51;57.11
21504;BME280;10913;51.992;9.228;2023-04-30T10:53:20;101044.72;;;18.52;58.26
21504;BME280;10913;51.992;9.228;2023-04-30T10:55:47;101037.19;;;18.68;57.43
21504;BME280;10913;51.992;9.228;2023-04-30T10:58:42;101033.13;;;18.84;56.42
21504;BME280;10913;51.992;9.228;2023-04-30T11:01:11;101033.47;;;19.03;56.15
21504;BME280;10913;51.992;9.228;2023-04-30T11:03:40;101036.47;;;18.92;54.15
21504;BME280;10913;51.992;9.228;2023-04-30T11:06:14;101029.53;;;18.85;54.30
21504;BME280;10913;51.992;9.228;2023-04-30T11:08:44;101028.06;;;18.75;54.20
21504;BME280;10913;51.992;9.228;2023-04-30T11:11:11;101028.63;;;18.86;55.37
21504;BME280;10913;51.992;9.228;2023-04-30T11:13:58;101028.91;;;19.07;55.42
21504;BME280;10913;51.992;9.228;2023-04-30T11:16:29;101026.19;;;19.08;54.83
21504;BME280;10913;51.992;9.228;2023-04-30T11:19:13;101021.78;;;19.06;54.60
21504;BME280;10913;51.992;9.228;2023-04-30T11:21:39;101020.13;;;19.02;54.55
21504;BME280;10913;51.992;9.228;2023-04-30T11:24:05;101012.53;;;18.86;55.71
21504;BME280;10913;51.992;9.228;2023-04-30T11:27:03;101018.75;;;18.88;56.08
21504;BME280;10913;51.992;9.228;2023-04-30T11:29:30;101022.53;;;19.11;55.90
21504;BME280;10913;51.992;9.228;2023-04-30T11:31:59;101014.81;;;19.30;56.18
21504;BME280;10913;51.992;9.228;2023-04-30T11:34:25;101018.91;;;19.41;56.00
21504;BME280;10913;51.992;9.228;2023-04-30T11:36:53;101014.22;;;19.48;56.00
21504;BME280;10913;51.992;9.228;2023-04-30T11:39:19;101016.50;;;19.61;55.60
21504;BME280;10913;51.992;9.228;2023-04-30T11:41:45;100998.38;;;19.70;52.06
21504;BME280;10913;51.992;9.228;2023-04-30T11:44:26;101001.31;;;19.60;51.94
21504;BME280;10913;51.992;9.228;2023-04-30T11:46:52;101003.34;;;19.54;54.04
21504;BME280;10913;51.992;9.228;2023-04-30T11:49:19;101003.97;;;19.34;53.88
21504;BME280;10913;51.992;9.228;2023-04-30T11:51:48;100999.22;;;19.42;54.04
21504;BME280;10913;51.992;9.228;2023-04-30T11:54:13;100994.03;;;19.66;54.66
21504;BME280;10913;51.992;9.228;2023-04-30T11:56:39;100986.25;;;19.58;54.28
21504;BME280;10913;51.992;9.228;2023-04-30T11:59:11;100990.66;;;19.59;54.90
21504;BME280;10913;51.992;9.228;2023-04-30T12:01:36;100988.25;;;19.51;54.56
21504;BME280;10913;51.992;9.228;2023-04-30T12:04:02;100985.88;;;19.69;54.77
21504;BME280;10913;51.992;9.228;2023-04-30T12:06:28;100995.25;;;19.82;53.89
21504;BME280;10913;51.992;9.228;2023-04-30T12:08:56;100997.53;;;19.94;53.00
21504;BME280;10913;51.992;9.228;2023-04-30T12:11:24;100991.66;;;20.09;52.91
21504;BME280;10913;51.992;9.228;2023-04-30T12:13:51;100992.75;;;20.28;53.41
21504;BME280;10913;51.992;9.228;2023-04-30T12:16:16;100993.16;;;20.43;52.76
21504;BME280;10913;51.992;9.228;2023-04-30T12:18:42;100978.19;;;20.36;52.81
21504;BME280;10913;51.992;9.228;2023-04-30T12:21:08;100975.41;;;20.39;52.96
21504;BME280;10913;51.992;9.228;2023-04-30T12:23:34;100976.66;;;20.28;52.81
21504;BME280;10913;51.992;9.228;2023-04-30T12:26:00;100969.09;;;20.15;53.17
21504;BME280;10913;51.992;9.228;2023-04-30T12:28:26;100972.91;;;20.08;54.01
21504;BME280;10913;51.992;9.228;2023-04-30T12:30:52;100965.84;;;20.05;52.46
21504;BME280;10913;51.992;9.228;2023-04-30T12:33:18;100968.63;;;20.02;53.40
21504;BME280;10913;51.992;9.228;2023-04-30T12:35:44;100978.59;;;19.99;53.63
21504;BME280;10913;51.992;9.228;2023-04-30T12:38:09;100964.38;;;19.97;53.61
21504;BME280;10913;51.992;9.228;2023-04-30T12:40:35;100965.78;;;20.07;53.98
21504;BME280;10913;51.992;9.228;2023-04-30T12:43:04;100963.94;;;19.82;52.79
21504;BME280;10913;51.992;9.228;2023-04-30T12:45:59;100968.88;;;19.96;54.16
21504;BME280;10913;51.992;9.228;2023-04-30T12:48:25;100966.66;;;20.07;54.13
21504;BME280;10913;51.992;9.228;2023-04-30T12:50:57;100960.22;;;20.13;51.66
21504;BME280;10913;51.992;9.228;2023-04-30T12:53:22;100959.50;;;20.08;53.14
21504;BME280;10913;51.992;9.228;2023-04-30T12:56:07;100955.69;;;20.15;54.42
21504;BME280;10913;51.992;9.228;2023-04-30T12:58:44;100952.34;;;20.08;52.88
21504;BME280;10913;51.992;9.228;2023-04-30T13:01:21;100950.47;;;20.10;52.98
21504;BME280;10913;51.992;9.228;2023-04-30T13:03:48;100957.38;;;20.17;53.39
21504;BME280;10913;51.992;9.228;2023-04-30T13:06:14;100957.38;;;20.17;52.83
21504;BME280;10913;51.992;9.228;2023-04-30T13:08:39;100950.31;;;20.40;52.97
21504;BME280;10913;51.992;9.228;2023-04-30T13:11:05;100949.81;;;20.53;52.02
21504;BME280;10913;51.992;9.228;2023-04-30T13:13:32;100941.88;;;20.25;52.21
21504;BME280;10913;51.992;9.228;2023-04-30T13:15:58;100938.50;;;20.19;53.07
21504;BME280;10913;51.992;9.228;2023-04-30T13:18:23;100939.53;;;20.16;52.44
21504;BME280;10913;51.992;9.228;2023-04-30T13:20:49;100932.06;;;20.24;53.46
21504;BME280;10913;51.992;9.228;2023-04-30T13:23:14;100926.59;;;20.27;52.77
21504;BME280;10913;51.992;9.228;2023-04-30T13:25:40;100926.28;;;20.37;52.16
21504;BME280;10913;51.992;9.228;2023-04-30T13:28:11;100917.78;;;20.49;52.84
21504;BME280;10913;51.992;9.228;2023-04-30T13:30:37;100914.16;;;20.50;52.56